Tubul — A8VP8 — position and weather

sailwx.info

Track history (hours):
 
Tides and Currents Weather Stations Pressure Air Temp Water Temp Dewpoint Dewpoint Depression Visibility Wind Speed Wind Dir Waves Ship Positions

Tubul

Last reported at 2017-Apr-25 02:01 UTC. Time now 2017-Apr-27 03:32 UTC.
Position N 01°55' E 102°19'.

Length 300 m; draft 13 m.

Type: Ship (hazmat cat A). MMSI: 636014647.

Date/timePositionNaut miles runAvg speedWind from/ knotsBaromVisibWave heightAir tempDewpointWater temp
2017-Apr-25 02:01N 01°55' E 102°19'017.0
2017-Apr-25 02:00N 01°55' E 102°19'816.3
2017-Apr-25 01:30N 01°52' E 102°27'816.0
2017-Apr-25 00:58N 01°48' E 102°35'715.5
2017-Apr-25 00:30N 01°45' E 102°41'714.1
2017-Apr-25 00:00N 01°42' E 102°47'713.8
2017-Apr-24 23:30N 01°40' E 102°54'1014.0
2017-Apr-24 22:46N 01°34' E 103°03'914.8
2017-Apr-24 22:11N 01°29' E 103°09'815.6
2017-Apr-24 21:39N 01°23' E 103°15'315.7
2017-Apr-24 21:27N 01°21' E 103°18'816.3
2017-Apr-24 20:58N 01°16' E 103°23'715.8
2017-Apr-24 20:30N 01°13' E 103°30'815.3
2017-Apr-24 20:01N 01°12' E 103°38'510.2
2017-Apr-24 19:30N 01°14' E 103°42'5 9.4
2017-Apr-24 19:00N 01°16' E 103°47'0 0.6
2017-Apr-24 18:30N 01°16' E 103°46'0 0.0
2017-Apr-24 17:58N 01°16' E 103°46'0 0.0
2017-Apr-24 17:28N 01°16' E 103°46'0 0.0
2017-Apr-24 16:58N 01°16' E 103°46'0 0.0
2017-Apr-24 16:28N 01°16' E 103°46'0 0.0
2017-Apr-24 15:58N 01°16' E 103°46'0 0.0
2017-Apr-24 15:28N 01°16' E 103°46'0 0.0
2017-Apr-24 14:58N 01°16' E 103°46'0 0.0
2017-Apr-24 14:28N 01°16' E 103°46'0 0.0
2017-Apr-24 13:25N 01°16' E 103°46'0 0.0
2017-Apr-24 12:58N 01°16' E 103°46'0 0.0
2017-Apr-24 12:28N 01°16' E 103°46'0 0.0
2017-Apr-24 11:55N 01°16' E 103°46'0 0.0
2017-Apr-24 11:25N 01°16' E 103°46'0 0.0
2017-Apr-24 10:58N 01°16' E 103°46'0 0.0
2017-Apr-24 10:28N 01°16' E 103°46'0 0.0
2017-Apr-24 09:55N 01°16' E 103°46'0 0.0
2017-Apr-24 09:28N 01°16' E 103°46'0 0.0
2017-Apr-24 08:58N 01°16' E 103°46'0 0.0
2017-Apr-24 08:28N 01°16' E 103°46'0 0.0
2017-Apr-24 07:58N 01°16' E 103°46'0 0.0
2017-Apr-24 07:28N 01°16' E 103°46'0 0.0
2017-Apr-24 06:58N 01°16' E 103°46'0 0.0
2017-Apr-24 06:25N 01°16' E 103°46'0 0.0
2017-Apr-24 05:58N 01°16' E 103°46'0 0.0
2017-Apr-24 05:28N 01°16' E 103°46'0 0.0
2017-Apr-24 04:58N 01°16' E 103°46'0 0.0
2017-Apr-24 04:28N 01°16' E 103°46'0 0.0
2017-Apr-24 03:58N 01°16' E 103°46'0 0.0
2017-Apr-24 03:28N 01°16' E 103°46'0 0.0
2017-Apr-24 02:55N 01°16' E 103°46'0 0.0
2017-Apr-24 02:28N 01°16' E 103°46'0 0.0
2017-Apr-24 02:00N 01°16' E 103°46'2 3.1
2017-Apr-24 01:30N 01°15' E 103°47'510.2
2017-Apr-24 01:01N 01°13' E 103°51'3 5.6
2017-Apr-24 00:30N 01°14' E 103°54'4 7.8
2017-Apr-23 23:59N 01°15' E 103°58'611.8
2017-Apr-23 23:30N 01°16' E 104°04'  
2017-Apr-19 15:33N 22°31' E 119°44'120.3
2017-Apr-19 15:30N 22°31' E 119°45'1020.7
2017-Apr-19 15:00N 22°32' E 119°57'1020.1
2017-Apr-19 14:30N 22°32' E 120°07'1211.6
2017-Apr-19 13:30N 22°33' E 120°20'0 0.4
2017-Apr-19 12:59N 22°33' E 120°20'0 0.0
2017-Apr-19 12:29N 22°33' E 120°20'0 0.0
2017-Apr-19 11:53N 22°33' E 120°20'0 0.0
2017-Apr-19 11:26N 22°33' E 120°20'0 0.0
2017-Apr-19 10:47N 22°33' E 120°20'0 0.0
2017-Apr-19 10:26N 22°33' E 120°20'0 0.0
2017-Apr-19 09:59N 22°33' E 120°20'0 0.0
2017-Apr-19 09:29N 22°33' E 120°20'0 0.0
2017-Apr-19 08:59N 22°33' E 120°20'0 0.0
2017-Apr-19 08:08N 22°33' E 120°20'0 0.0
2017-Apr-19 04:56N 22°33' E 120°20'0 0.0
2017-Apr-19 03:29N 22°33' E 120°20'0 0.0
2017-Apr-19 02:59N 22°33' E 120°20'0 0.1
2017-Apr-19 02:30N 22°33' E 120°20'4 7.4
2017-Apr-19 02:00N 22°32' E 120°16'4 8.0
2017-Apr-19 01:30N 22°32' E 120°11'713.4
2017-Apr-19 01:00N 22°38' E 120°08'1019.1
2017-Apr-19 00:30N 22°46' E 120°02'  
Track history (hours):
 
Tides and Currents Weather Stations Pressure Air Temp Water Temp Dewpoint Dewpoint Depression Visibility Wind Speed Wind Dir Waves Ship Positions

Tubul

Last reported at 2017-Apr-25 02:01 UTC. Time now 2017-Apr-27 03:32 UTC.
Position N 01°55' E 102°19'.

Length 300 m; draft 13 m.

Type: Ship (hazmat cat A). MMSI: 636014647.

Date/timePositionNaut miles runAvg speedWind from/ knotsBaromVisibWave heightAir tempDewpointWater temp
2017-Apr-25 02:01N 01°55' E 102°19'017.0
2017-Apr-25 02:00N 01°55' E 102°19'816.3
2017-Apr-25 01:30N 01°52' E 102°27'816.0
2017-Apr-25 00:58N 01°48' E 102°35'715.5
2017-Apr-25 00:30N 01°45' E 102°41'714.1
2017-Apr-25 00:00N 01°42' E 102°47'713.8
2017-Apr-24 23:30N 01°40' E 102°54'1014.0
2017-Apr-24 22:46N 01°34' E 103°03'914.8
2017-Apr-24 22:11N 01°29' E 103°09'815.6
2017-Apr-24 21:39N 01°23' E 103°15'315.7
2017-Apr-24 21:27N 01°21' E 103°18'816.3
2017-Apr-24 20:58N 01°16' E 103°23'715.8
2017-Apr-24 20:30N 01°13' E 103°30'815.3
2017-Apr-24 20:01N 01°12' E 103°38'510.2
2017-Apr-24 19:30N 01°14' E 103°42'5 9.4
2017-Apr-24 19:00N 01°16' E 103°47'0 0.6
2017-Apr-24 18:30N 01°16' E 103°46'0 0.0
2017-Apr-24 17:58N 01°16' E 103°46'0 0.0
2017-Apr-24 17:28N 01°16' E 103°46'0 0.0
2017-Apr-24 16:58N 01°16' E 103°46'0 0.0
2017-Apr-24 16:28N 01°16' E 103°46'0 0.0
2017-Apr-24 15:58N 01°16' E 103°46'0 0.0
2017-Apr-24 15:28N 01°16' E 103°46'0 0.0
2017-Apr-24 14:58N 01°16' E 103°46'0 0.0
2017-Apr-24 14:28N 01°16' E 103°46'0 0.0
2017-Apr-24 13:25N 01°16' E 103°46'0 0.0
2017-Apr-24 12:58N 01°16' E 103°46'0 0.0
2017-Apr-24 12:28N 01°16' E 103°46'0 0.0
2017-Apr-24 11:55N 01°16' E 103°46'0 0.0
2017-Apr-24 11:25N 01°16' E 103°46'0 0.0
2017-Apr-24 10:58N 01°16' E 103°46'0 0.0
2017-Apr-24 10:28N 01°16' E 103°46'0 0.0
2017-Apr-24 09:55N 01°16' E 103°46'0 0.0
2017-Apr-24 09:28N 01°16' E 103°46'0 0.0
2017-Apr-24 08:58N 01°16' E 103°46'0 0.0
2017-Apr-24 08:28N 01°16' E 103°46'0 0.0
2017-Apr-24 07:58N 01°16' E 103°46'0 0.0
2017-Apr-24 07:28N 01°16' E 103°46'0 0.0
2017-Apr-24 06:58N 01°16' E 103°46'0 0.0
2017-Apr-24 06:25N 01°16' E 103°46'0 0.0
2017-Apr-24 05:58N 01°16' E 103°46'0 0.0
2017-Apr-24 05:28N 01°16' E 103°46'0 0.0
2017-Apr-24 04:58N 01°16' E 103°46'0 0.0
2017-Apr-24 04:28N 01°16' E 103°46'0 0.0
2017-Apr-24 03:58N 01°16' E 103°46'0 0.0
2017-Apr-24 03:28N 01°16' E 103°46'0 0.0
2017-Apr-24 02:55N 01°16' E 103°46'0 0.0
2017-Apr-24 02:28N 01°16' E 103°46'0 0.0
2017-Apr-24 02:00N 01°16' E 103°46'2 3.1
2017-Apr-24 01:30N 01°15' E 103°47'510.2
2017-Apr-24 01:01N 01°13' E 103°51'3 5.6
2017-Apr-24 00:30N 01°14' E 103°54'4 7.8
2017-Apr-23 23:59N 01°15' E 103°58'611.8
2017-Apr-23 23:30N 01°16' E 104°04'  
2017-Apr-19 15:33N 22°31' E 119°44'120.3
2017-Apr-19 15:30N 22°31' E 119°45'1020.7
2017-Apr-19 15:00N 22°32' E 119°57'1020.1
2017-Apr-19 14:30N 22°32' E 120°07'1211.6
2017-Apr-19 13:30N 22°33' E 120°20'0 0.4
2017-Apr-19 12:59N 22°33' E 120°20'0 0.0
2017-Apr-19 12:29N 22°33' E 120°20'0 0.0
2017-Apr-19 11:53N 22°33' E 120°20'0 0.0
2017-Apr-19 11:26N 22°33' E 120°20'0 0.0
2017-Apr-19 10:47N 22°33' E 120°20'0 0.0
2017-Apr-19 10:26N 22°33' E 120°20'0 0.0
2017-Apr-19 09:59N 22°33' E 120°20'0 0.0
2017-Apr-19 09:29N 22°33' E 120°20'0 0.0
2017-Apr-19 08:59N 22°33' E 120°20'0 0.0
2017-Apr-19 08:08N 22°33' E 120°20'0 0.0
2017-Apr-19 04:56N 22°33' E 120°20'0 0.0
2017-Apr-19 03:29N 22°33' E 120°20'0 0.0
2017-Apr-19 02:59N 22°33' E 120°20'0 0.1
2017-Apr-19 02:30N 22°33' E 120°20'4 7.4
2017-Apr-19 02:00N 22°32' E 120°16'4 8.0
2017-Apr-19 01:30N 22°32' E 120°11'713.4
2017-Apr-19 01:00N 22°38' E 120°08'1019.1
2017-Apr-19 00:30N 22°46' E 120°02'  

Dump ship's entire track history